Time;durP1;ratioP1;P1;durP2;ratioP2;P2;SDS_P1;SDS_P2;PMS_P1;PMS_P2;Temp;Humidity;BMP_temperature;BMP_pressure;BME280_temperature;BME280_humidity;BME280_pressure;Samples;Min_cycle;Max_cycle;Signal;HPM_P1;HPM_P2
2021/04/14 00:01:52;;;;;;;1.63;0.60;;;;;;;;;;5001634;28;20027;-75
2021/04/14 00:04:18;;;;;;;1.55;0.65;;;;;;;;;;5003111;28;20025;-74
2021/04/14 00:06:44;;;;;;;1.20;0.60;;;;;;;;;;4983702;28;20021;-73
2021/04/14 00:09:10;;;;;;;1.45;0.68;;;;;;;;;;5002068;28;20025;-73
2021/04/14 00:11:37;;;;;;;0.95;0.60;;;;;;;;;;5002823;28;20021;-72
2021/04/14 00:14:03;;;;;;;1.05;0.60;;;;;;;;;;4998686;28;20026;-73
2021/04/14 00:16:30;;;;;;;1.23;0.50;;;;;;;;;;4975362;28;20022;-74
2021/04/14 00:18:56;;;;;;;1.75;0.68;;;;;;;;;;4977910;28;20046;-85
2021/04/14 00:21:23;;;;;;;1.15;0.70;;;;;;;;;;5012053;28;20052;-74
2021/04/14 00:23:49;;;;;;;0.73;0.43;;;;;;;;;;5012531;28;20053;-72
2021/04/14 00:26:16;;;;;;;3.08;0.50;;;;;;;;;;5012298;28;20486;-75
2021/04/14 00:28:42;;;;;;;1.42;0.60;;;;;;;;;;4994605;28;20454;-74
2021/04/14 00:31:09;;;;;;;1.15;0.50;;;;;;;;;;4978179;28;20116;-75
2021/04/14 00:33:35;;;;;;;3.22;0.50;;;;;;;;;;4987498;28;20072;-80
2021/04/14 00:36:01;;;;;;;1.05;0.50;;;;;;;;;;4995812;28;20024;-83
2021/04/14 00:38:27;;;;;;;4.00;0.63;;;;;;;;;;5013274;28;20037;-82
2021/04/14 00:40:55;;;;;;;5.88;0.70;;;;;;;;;;5012801;28;20029;-82
2021/04/14 00:43:23;;;;;;;2.25;0.77;;;;;;;;;;4995648;28;20033;-82
2021/04/14 00:45:49;;;;;;;3.20;0.60;;;;;;;;;;5013193;28;20440;-83
2021/04/14 00:48:15;;;;;;;2.25;0.85;;;;;;;;;;4978201;28;20085;-83
2021/04/14 00:50:41;;;;;;;3.22;0.70;;;;;;;;;;4976029;28;20026;-83
2021/04/14 00:53:08;;;;;;;1.65;0.77;;;;;;;;;;4975782;28;20033;-77
2021/04/14 00:55:35;;;;;;;1.25;0.60;;;;;;;;;;4993356;28;20108;-74
2021/04/14 00:58:01;;;;;;;2.22;0.70;;;;;;;;;;4993460;28;20143;-73
2021/04/14 01:00:29;;;;;;;6.70;0.50;;;;;;;;;;4993287;28;20026;-75
2021/04/14 01:02:55;;;;;;;3.17;0.70;;;;;;;;;;4993450;28;20085;-74
2021/04/14 01:05:21;;;;;;;3.75;0.65;;;;;;;;;;4993098;28;20018;-73
2021/04/14 01:07:48;;;;;;;1.30;0.50;;;;;;;;;;4975706;28;20030;-74
2021/04/14 01:10:15;;;;;;;2.55;0.60;;;;;;;;;;4976375;28;20436;-77
2021/04/14 01:12:42;;;;;;;4.55;0.82;;;;;;;;;;4978444;28;20038;-75
2021/04/14 01:15:09;;;;;;;1.65;0.60;;;;;;;;;;4994025;28;20073;-77
2021/04/14 01:17:35;;;;;;;0.80;0.38;;;;;;;;;;4993654;28;20027;-84
2021/04/14 01:20:01;;;;;;;2.25;0.68;;;;;;;;;;4993538;28;20040;-83
2021/04/14 01:22:27;;;;;;;1.35;0.60;;;;;;;;;;4993400;28;20046;-78
2021/04/14 01:24:53;;;;;;;1.10;0.70;;;;;;;;;;4993753;28;20030;-78
2021/04/14 01:27:19;;;;;;;1.20;0.57;;;;;;;;;;4976011;28;20049;-77
2021/04/14 01:29:45;;;;;;;1.58;0.77;;;;;;;;;;4993628;28;20025;-76
2021/04/14 01:32:11;;;;;;;4.07;0.57;;;;;;;;;;4993443;28;20026;-82
2021/04/14 01:34:37;;;;;;;3.90;0.57;;;;;;;;;;4976201;28;20022;-82
2021/04/14 01:37:03;;;;;;;1.60;0.60;;;;;;;;;;4976077;28;20496;-74
2021/04/14 01:39:29;;;;;;;2.88;0.60;;;;;;;;;;4993721;28;20069;-74
2021/04/14 01:41:56;;;;;;;1.85;0.68;;;;;;;;;;4976160;28;20029;-75
2021/04/14 01:44:22;;;;;;;1.05;0.50;;;;;;;;;;4993434;28;20101;-78
2021/04/14 01:46:48;;;;;;;2.20;0.88;;;;;;;;;;4993333;28;20030;-83
2021/04/14 01:49:14;;;;;;;1.38;0.50;;;;;;;;;;4993582;28;20022;-84
2021/04/14 01:51:40;;;;;;;1.50;0.40;;;;;;;;;;4975583;28;20059;-84
2021/04/14 01:54:06;;;;;;;2.53;0.50;;;;;;;;;;4975612;28;20034;-73
2021/04/14 01:56:32;;;;;;;4.07;0.90;;;;;;;;;;4993343;28;20081;-81
2021/04/14 01:58:58;;;;;;;8.00;0.77;;;;;;;;;;4975620;28;20038;-76
2021/04/14 02:01:24;;;;;;;1.67;0.60;;;;;;;;;;4975753;28;20391;-74
2021/04/14 02:03:51;;;;;;;0.88;0.50;;;;;;;;;;4977766;28;20027;-75
2021/04/14 02:06:17;;;;;;;1.05;0.60;;;;;;;;;;4978758;28;20015;-75
2021/04/14 02:08:44;;;;;;;1.30;0.60;;;;;;;;;;4978904;28;20018;-76
2021/04/14 02:11:11;;;;;;;1.25;0.60;;;;;;;;;;4978672;28;20064;-75
2021/04/14 02:13:39;;;;;;;2.28;0.50;;;;;;;;;;4996299;28;20026;-73
2021/04/14 02:16:06;;;;;;;0.90;0.52;;;;;;;;;;4996056;28;20127;-84
2021/04/14 02:18:32;;;;;;;1.45;0.65;;;;;;;;;;4996020;28;20038;-73
2021/04/14 02:21:00;;;;;;;0.98;0.60;;;;;;;;;;4978254;28;20027;-77
2021/04/14 02:23:44;;;;;;;2.05;0.60;;;;;;;;;;4995288;28;20050;-78
2021/04/14 02:26:12;;;;;;;2.10;0.65;;;;;;;;;;4995390;28;20041;-74
2021/04/14 02:28:38;;;;;;;1.30;0.52;;;;;;;;;;4995525;28;20419;-74
2021/04/14 02:31:05;;;;;;;1.13;0.70;;;;;;;;;;4977956;28;20033;-73
2021/04/14 02:33:32;;;;;;;5.18;0.68;;;;;;;;;;4995975;28;20029;-83
2021/04/14 02:35:58;;;;;;;1.55;0.73;;;;;;;;;;4996239;28;20033;-83
2021/04/14 02:38:25;;;;;;;2.13;0.80;;;;;;;;;;4996182;28;20034;-74
2021/04/14 02:40:51;;;;;;;4.05;0.73;;;;;;;;;;4995978;28;20028;-82
2021/04/14 02:43:17;;;;;;;1.15;0.60;;;;;;;;;;4978457;28;20126;-82
2021/04/14 02:45:43;;;;;;;1.55;0.65;;;;;;;;;;4996051;28;20053;-81
2021/04/14 02:48:11;;;;;;;1.95;0.80;;;;;;;;;;4995863;28;20023;-81
2021/04/14 02:50:37;;;;;;;1.58;0.75;;;;;;;;;;4978573;28;20033;-83
2021/04/14 02:53:04;;;;;;;2.67;0.57;;;;;;;;;;4975496;28;20030;-73
2021/04/14 02:55:30;;;;;;;3.50;0.80;;;;;;;;;;4993475;28;20069;-81
2021/04/14 02:57:57;;;;;;;0.90;0.57;;;;;;;;;;4995295;28;20041;-76
2021/04/14 03:00:24;;;;;;;1.13;0.60;;;;;;;;;;4995196;28;20109;-78
2021/04/14 03:02:51;;;;;;;1.40;0.70;;;;;;;;;;4977599;28;20062;-73
2021/04/14 03:05:19;;;;;;;2.40;0.88;;;;;;;;;;4996584;28;20257;-83
2021/04/14 03:07:45;;;;;;;1.45;0.80;;;;;;;;;;4996461;28;20033;-79
2021/04/14 03:10:12;;;;;;;1.83;0.80;;;;;;;;;;4977624;28;20046;-80
2021/04/14 03:12:39;;;;;;;1.55;0.60;;;;;;;;;;4994886;28;20157;-74
2021/04/14 03:15:06;;;;;;;2.53;0.80;;;;;;;;;;4977103;28;20499;-76
2021/04/14 03:17:32;;;;;;;1.75;0.90;;;;;;;;;;4976781;28;20057;-73
2021/04/14 03:19:58;;;;;;;1.73;0.70;;;;;;;;;;4976514;28;20026;-73
2021/04/14 03:22:24;;;;;;;1.83;0.70;;;;;;;;;;4994077;28;20563;-77
2021/04/14 03:24:51;;;;;;;1.50;0.90;;;;;;;;;;4977224;28;20066;-74
2021/04/14 03:27:17;;;;;;;1.15;0.65;;;;;;;;;;4995133;28;20411;-73
2021/04/14 03:29:43;;;;;;;1.60;0.82;;;;;;;;;;4977409;28;20074;-73
2021/04/14 03:32:09;;;;;;;1.73;0.85;;;;;;;;;;4977473;28;20030;-73
2021/04/14 03:34:35;;;;;;;1.63;0.75;;;;;;;;;;4994874;28;20022;-78
2021/04/14 03:37:01;;;;;;;1.88;0.90;;;;;;;;;;4977154;28;20622;-74
2021/04/14 03:39:27;;;;;;;1.83;0.77;;;;;;;;;;4977239;28;20462;-74
2021/04/14 03:41:53;;;;;;;2.35;0.90;;;;;;;;;;4977018;28;20018;-73
2021/04/14 03:44:19;;;;;;;1.55;0.80;;;;;;;;;;4994745;28;20029;-76
2021/04/14 03:46:45;;;;;;;1.50;0.60;;;;;;;;;;4994668;28;20022;-73
2021/04/14 03:49:11;;;;;;;2.10;0.73;;;;;;;;;;4994539;28;20037;-73
2021/04/14 03:51:37;;;;;;;8.23;1.10;;;;;;;;;;4976576;28;20022;-72
2021/04/14 03:54:04;;;;;;;3.50;1.00;;;;;;;;;;4994288;28;20093;-73
2021/04/14 03:56:30;;;;;;;2.83;1.13;;;;;;;;;;4994368;28;20022;-83
2021/04/14 03:58:56;;;;;;;3.33;0.90;;;;;;;;;;4994129;28;20030;-74
2021/04/14 04:01:24;;;;;;;3.05;1.10;;;;;;;;;;4976687;28;20022;-73
2021/04/14 04:03:51;;;;;;;9.45;1.08;;;;;;;;;;4994136;28;20113;-82
2021/04/14 04:06:17;;;;;;;2.10;0.98;;;;;;;;;;4976761;28;20379;-77
2021/04/14 04:08:43;;;;;;;2.42;0.90;;;;;;;;;;4976717;28;20077;-74
2021/04/14 04:11:10;;;;;;;1.70;0.90;;;;;;;;;;4993897;28;20387;-74
2021/04/14 04:13:36;;;;;;;3.50;1.00;;;;;;;;;;4976665;28;20061;-73
2021/04/14 04:16:02;;;;;;;1.98;0.90;;;;;;;;;;4994003;28;20080;-75
2021/04/14 04:18:28;;;;;;;1.95;0.82;;;;;;;;;;4993836;28;20041;-73
2021/04/14 04:20:55;;;;;;;2.80;0.73;;;;;;;;;;4993852;28;20065;-73
2021/04/14 04:23:21;;;;;;;4.63;0.90;;;;;;;;;;4976342;28;20057;-73
2021/04/14 04:25:47;;;;;;;1.75;0.80;;;;;;;;;;4975577;28;20030;-74
2021/04/14 04:28:13;;;;;;;3.17;0.80;;;;;;;;;;4993638;28;20027;-73
2021/04/14 04:30:39;;;;;;;2.35;0.90;;;;;;;;;;4976257;28;20019;-74
2021/04/14 04:33:06;;;;;;;1.98;0.85;;;;;;;;;;4975979;28;20058;-73
2021/04/14 04:35:33;;;;;;;3.92;0.90;;;;;;;;;;4975973;28;20019;-73
2021/04/14 04:37:59;;;;;;;2.65;0.90;;;;;;;;;;4993436;28;20154;-74
2021/04/14 04:40:26;;;;;;;2.25;0.93;;;;;;;;;;4975649;28;20026;-73
2021/04/14 04:42:52;;;;;;;4.32;1.20;;;;;;;;;;4975629;28;20057;-73
2021/04/14 04:45:19;;;;;;;2.00;1.00;;;;;;;;;;4975395;28;20113;-81
2021/04/14 04:47:45;;;;;;;2.15;0.90;;;;;;;;;;4976378;28;20022;-73
2021/04/14 04:50:12;;;;;;;2.30;1.00;;;;;;;;;;4976541;28;20533;-73
2021/04/14 04:52:38;;;;;;;2.22;0.98;;;;;;;;;;4975802;28;20023;-73
2021/04/14 04:55:05;;;;;;;3.97;1.55;;;;;;;;;;4974006;28;20037;-79
2021/04/14 04:57:32;;;;;;;2.70;1.17;;;;;;;;;;4975779;28;20027;-74
2021/04/14 04:59:58;;;;;;;2.55;1.20;;;;;;;;;;4993398;28;20034;-74
2021/04/14 05:02:24;;;;;;;2.60;1.10;;;;;;;;;;4976334;28;20022;-74
2021/04/14 05:04:50;;;;;;;4.97;1.20;;;;;;;;;;4994530;28;20105;-74
2021/04/14 05:07:16;;;;;;;2.38;1.15;;;;;;;;;;4993304;28;20018;-73
2021/04/14 05:09:42;;;;;;;2.53;1.10;;;;;;;;;;4993103;28;20627;-73
2021/04/14 05:12:08;;;;;;;2.60;1.00;;;;;;;;;;4993011;28;21403;-74
2021/04/14 05:14:34;;;;;;;3.40;1.38;;;;;;;;;;4975517;28;20084;-74
2021/04/14 05:17:00;;;;;;;2.58;1.20;;;;;;;;;;4992539;28;20034;-75
2021/04/14 05:19:26;;;;;;;2.78;1.15;;;;;;;;;;4992945;28;20026;-73
2021/04/14 05:21:52;;;;;;;3.53;1.60;;;;;;;;;;4975388;28;20042;-74
2021/04/14 05:24:18;;;;;;;2.47;1.20;;;;;;;;;;4975387;28;20112;-74
2021/04/14 05:26:44;;;;;;;2.65;1.20;;;;;;;;;;4992506;28;20022;-74
2021/04/14 05:29:10;;;;;;;4.05;1.30;;;;;;;;;;4992721;28;20021;-74
2021/04/14 05:31:37;;;;;;;2.63;1.25;;;;;;;;;;4974282;28;20125;-74
2021/04/14 05:34:04;;;;;;;2.35;1.30;;;;;;;;;;4992817;28;20441;-74
2021/04/14 05:36:30;;;;;;;3.28;1.40;;;;;;;;;;4975339;28;20030;-74
2021/04/14 05:38:56;;;;;;;4.15;1.40;;;;;;;;;;4995284;28;20066;-74
2021/04/14 05:41:23;;;;;;;3.08;1.40;;;;;;;;;;4996801;28;20022;-73
2021/04/14 05:43:49;;;;;;;4.72;1.90;;;;;;;;;;4996427;28;20034;-74
2021/04/14 05:46:17;;;;;;;3.35;1.38;;;;;;;;;;4979134;28;20022;-74
2021/04/14 05:48:44;;;;;;;3.75;1.58;;;;;;;;;;4978910;28;20138;-75
2021/04/14 05:51:12;;;;;;;3.20;1.40;;;;;;;;;;4979246;28;20026;-73
2021/04/14 05:53:39;;;;;;;6.00;1.60;;;;;;;;;;4996521;28;20101;-73
2021/04/14 05:56:06;;;;;;;3.22;1.42;;;;;;;;;;4978934;28;20025;-73
2021/04/14 05:58:33;;;;;;;2.72;1.50;;;;;;;;;;4996391;28;20057;-74
2021/04/14 06:00:59;;;;;;;2.38;1.23;;;;;;;;;;4996258;28;20056;-74
2021/04/14 06:03:26;;;;;;;3.40;1.55;;;;;;;;;;4995965;28;20058;-79
2021/04/14 06:05:59;;;;;;;3.58;1.75;;;;;;;;;;4978242;28;20740;-78
2021/04/14 06:08:26;;;;;;;3.67;1.65;;;;;;;;;;4995707;28;20102;-82
2021/04/14 06:10:52;;;;;;;3.38;1.33;;;;;;;;;;4995675;28;20022;-73
2021/04/14 06:13:18;;;;;;;3.13;1.60;;;;;;;;;;4995605;28;20026;-73
2021/04/14 06:15:44;;;;;;;3.75;1.60;;;;;;;;;;4977975;28;20084;-74
2021/04/14 06:18:10;;;;;;;4.07;1.75;;;;;;;;;;4977807;28;20180;-82
2021/04/14 06:20:37;;;;;;;3.30;1.40;;;;;;;;;;4995459;28;20113;-75
2021/04/14 06:23:05;;;;;;;3.25;1.48;;;;;;;;;;4995200;28;20196;-78
2021/04/14 06:25:36;;;;;;;3.63;1.60;;;;;;;;;;4977710;28;20133;-80
2021/04/14 06:28:07;;;;;;;4.32;1.65;;;;;;;;;;4995348;28;20022;-74
2021/04/14 06:30:37;;;;;;;3.53;1.55;;;;;;;;;;4977636;28;20131;-75
2021/04/14 06:33:05;;;;;;;6.40;1.90;;;;;;;;;;4995287;28;20037;-73
2021/04/14 06:35:32;;;;;;;4.30;1.80;;;;;;;;;;4995688;28;20022;-73
2021/04/14 06:38:03;;;;;;;4.45;1.65;;;;;;;;;;4995430;28;20034;-73
2021/04/14 06:43:18;;;;;;;3.78;1.65;;;;;;;;;;4995344;28;20497;-74
2021/04/14 06:45:56;;;;;;;2.63;1.30;;;;;;;;;;4995559;28;20391;-73
2021/04/14 06:48:43;;;;;;;3.70;1.55;;;;;;;;;;4977714;28;20513;-77
2021/04/14 06:51:15;;;;;;;3.15;1.48;;;;;;;;;;4978175;28;20027;-74
2021/04/14 06:53:56;;;;;;;3.78;1.67;;;;;;;;;;4977906;28;20096;-73
2021/04/14 06:56:23;;;;;;;3.67;1.63;;;;;;;;;;4995058;28;20029;-74
2021/04/14 06:58:52;;;;;;;3.97;1.88;;;;;;;;;;4977868;28;20344;-75
2021/04/14 07:01:21;;;;;;;3.42;1.60;;;;;;;;;;4976351;28;20026;-82
2021/04/14 07:03:50;;;;;;;3.65;1.40;;;;;;;;;;4977700;28;20038;-79
2021/04/14 07:06:19;;;;;;;5.88;1.60;;;;;;;;;;4977492;28;20058;-81
2021/04/14 07:08:49;;;;;;;3.33;1.45;;;;;;;;;;4995038;28;20015;-81
2021/04/14 07:11:18;;;;;;;2.70;1.40;;;;;;;;;;4977573;28;20026;-79
2021/04/14 07:13:46;;;;;;;6.75;1.40;;;;;;;;;;4994855;28;20483;-78
2021/04/14 07:16:31;;;;;;;4.35;1.50;;;;;;;;;;4994775;28;20061;-78
2021/04/14 07:19:00;;;;;;;3.83;1.58;;;;;;;;;;4994484;28;20038;-78
2021/04/14 07:21:40;;;;;;;3.22;1.42;;;;;;;;;;4994421;28;20047;-78
2021/04/14 07:24:12;;;;;;;3.38;1.55;;;;;;;;;;4994635;28;20607;-79
2021/04/14 07:26:51;;;;;;;2.88;1.27;;;;;;;;;;4994388;28;20049;-76
2021/04/14 07:29:27;;;;;;;4.63;1.45;;;;;;;;;;4993876;28;20026;-77
2021/04/14 07:32:15;;;;;;;2.72;1.30;;;;;;;;;;4976504;28;20034;-78
2021/04/14 07:34:44;;;;;;;3.47;1.40;;;;;;;;;;4984043;28;20026;-79
2021/04/14 07:37:17;;;;;;;6.40;1.38;;;;;;;;;;4993702;28;20023;-82
2021/04/14 07:40:22;;;;;;;6.78;1.50;;;;;;;;;;4993897;28;20034;-80
2021/04/14 07:42:54;;;;;;;4.20;1.35;;;;;;;;;;4914487;29;20039;-75
2021/04/14 07:45:38;;;;;;;5.22;1.30;;;;;;;;;;4914348;29;20071;-79
2021/04/14 07:48:04;;;;;;;4.10;1.42;;;;;;;;;;4964750;28;20031;-76
2021/04/14 07:50:33;;;;;;;4.60;1.38;;;;;;;;;;4993631;28;20026;-80
2021/04/14 07:52:59;;;;;;;3.78;1.40;;;;;;;;;;4976254;28;20030;-79
2021/04/14 07:55:30;;;;;;;5.45;1.30;;;;;;;;;;4976495;28;20022;-80
2021/04/14 07:58:05;;;;;;;2.50;1.08;;;;;;;;;;4993105;28;20080;-84
2021/04/14 08:00:37;;;;;;;3.10;1.45;;;;;;;;;;4975101;28;20022;-75
2021/04/14 08:03:09;;;;;;;4.90;1.35;;;;;;;;;;4975534;28;20022;-75
2021/04/14 08:05:35;;;;;;;3.55;1.40;;;;;;;;;;4993122;28;20057;-81
2021/04/14 08:08:01;;;;;;;3.53;1.45;;;;;;;;;;4975520;28;20030;-77
2021/04/14 08:10:29;;;;;;;2.90;1.23;;;;;;;;;;4977393;28;20019;-81
2021/04/14 08:12:55;;;;;;;3.80;1.65;;;;;;;;;;4975937;28;20026;-79
2021/04/14 08:15:51;;;;;;;2.58;1.13;;;;;;;;;;4975114;28;20475;-82
2021/04/14 08:18:17;;;;;;;3.53;1.45;;;;;;;;;;4959051;28;20150;-81
2021/04/14 08:20:44;;;;;;;3.78;1.42;;;;;;;;;;4975382;28;20022;-81
2021/04/14 08:23:26;;;;;;;3.15;1.38;;;;;;;;;;4975396;28;20054;-81
2021/04/14 08:25:54;;;;;;;3.35;1.55;;;;;;;;;;4992768;28;20054;-82
2021/04/14 08:28:36;;;;;;;4.35;1.45;;;;;;;;;;4993045;28;20028;-87
2021/04/14 08:31:08;;;;;;;2.55;1.10;;;;;;;;;;4974955;28;20501;-77
2021/04/14 08:33:34;;;;;;;2.95;1.40;;;;;;;;;;4975286;28;20081;-78
2021/04/14 08:36:26;;;;;;;3.58;1.48;;;;;;;;;;4959199;28;20134;-75
2021/04/14 08:38:53;;;;;;;2.97;1.40;;;;;;;;;;4988902;28;20047;-86
2021/04/14 08:41:37;;;;;;;3.15;1.58;;;;;;;;;;4975903;28;20054;-82
2021/04/14 08:44:08;;;;;;;3.25;1.40;;;;;;;;;;4987857;28;20026;-82
2021/04/14 08:46:37;;;;;;;3.38;1.42;;;;;;;;;;4975739;28;20491;-83
2021/04/14 08:49:20;;;;;;;6.93;1.83;;;;;;;;;;4992510;28;20023;-76
2021/04/14 08:51:49;;;;;;;3.53;1.85;;;;;;;;;;4991996;28;20488;-78
2021/04/14 08:54:20;;;;;;;3.33;1.48;;;;;;;;;;4992303;28;20026;-74
2021/04/14 08:56:49;;;;;;;3.53;1.60;;;;;;;;;;4992319;28;20022;-78
2021/04/14 08:59:15;;;;;;;2.63;1.35;;;;;;;;;;4991991;28;20088;-76
2021/04/14 09:01:41;;;;;;;7.38;1.67;;;;;;;;;;4992171;28;20026;-75
2021/04/14 09:04:11;;;;;;;2.80;1.33;;;;;;;;;;4992162;28;20076;-78
2021/04/14 09:06:38;;;;;;;4.78;1.80;;;;;;;;;;4992898;28;20077;-78
2021/04/14 09:09:05;;;;;;;4.55;1.60;;;;;;;;;;4992785;28;20109;-81
2021/04/14 09:11:32;;;;;;;5.32;1.60;;;;;;;;;;4973723;28;20388;-77
2021/04/14 09:14:03;;;;;;;3.15;1.40;;;;;;;;;;4974414;28;20061;-77
2021/04/14 09:16:36;;;;;;;5.37;1.70;;;;;;;;;;4974251;28;20054;-78
2021/04/14 09:19:14;;;;;;;3.53;1.50;;;;;;;;;;4991768;28;20097;-74
2021/04/14 09:21:44;;;;;;;4.30;1.45;;;;;;;;;;4991732;28;20054;-75
2021/04/14 09:24:21;;;;;;;4.22;1.40;;;;;;;;;;4974352;28;20030;-75
2021/04/14 09:26:53;;;;;;;3.15;1.40;;;;;;;;;;4974599;28;20060;-73
2021/04/14 09:29:22;;;;;;;3.75;1.60;;;;;;;;;;4974932;28;20073;-75
2021/04/14 09:31:51;;;;;;;2.92;1.55;;;;;;;;;;4974087;28;20034;-75
2021/04/14 09:34:19;;;;;;;4.53;1.48;;;;;;;;;;4991582;28;20018;-71
2021/04/14 09:36:49;;;;;;;3.13;1.27;;;;;;;;;;4991798;28;20101;-74
2021/04/14 09:39:27;;;;;;;5.80;1.55;;;;;;;;;;4973362;28;20045;-72
2021/04/14 09:41:53;;;;;;;3.70;1.45;;;;;;;;;;4991393;28;20542;-71
2021/04/14 09:44:39;;;;;;;5.22;1.50;;;;;;;;;;4974134;28;20034;-75
2021/04/14 09:47:24;;;;;;;7.22;1.40;;;;;;;;;;4991818;28;20027;-69
2021/04/14 09:49:51;;;;;;;3.42;1.27;;;;;;;;;;4991374;28;20026;-74
2021/04/14 09:52:23;;;;;;;3.25;1.60;;;;;;;;;;4991277;28;20037;-73
2021/04/14 09:54:51;;;;;;;4.05;1.90;;;;;;;;;;4991400;28;20173;-72
2021/04/14 09:57:20;;;;;;;4.00;1.77;;;;;;;;;;4974044;28;20035;-77
2021/04/14 09:59:46;;;;;;;5.40;2.25;;;;;;;;;;4992426;28;20058;-76
2021/04/14 10:02:16;;;;;;;7.03;1.80;;;;;;;;;;4974077;28;20023;-77
2021/04/14 10:04:43;;;;;;;8.45;1.63;;;;;;;;;;4974482;28;20052;-71
2021/04/14 10:07:20;;;;;;;4.65;1.77;;;;;;;;;;4991363;28;20619;-81
2021/04/14 10:09:46;;;;;;;5.75;1.65;;;;;;;;;;4977724;28;20482;-81
2021/04/14 10:12:14;;;;;;;4.25;1.67;;;;;;;;;;4991100;28;20023;-77
2021/04/14 10:14:42;;;;;;;3.97;1.60;;;;;;;;;;4991049;28;20510;-77
2021/04/14 10:17:09;;;;;;;3.75;1.73;;;;;;;;;;4973297;28;20022;-77
2021/04/14 10:19:35;;;;;;;4.72;1.50;;;;;;;;;;4990754;28;20037;-73
2021/04/14 10:22:09;;;;;;;6.28;1.88;;;;;;;;;;4991023;28;20051;-70
2021/04/14 10:24:35;;;;;;;4.78;1.73;;;;;;;;;;4993191;28;20029;-78
2021/04/14 10:27:01;;;;;;;3.83;1.65;;;;;;;;;;4962461;28;20026;-79
2021/04/14 10:29:34;;;;;;;4.10;1.48;;;;;;;;;;4994582;28;20135;-77
2021/04/14 10:32:00;;;;;;;4.45;1.80;;;;;;;;;;4977308;28;20396;-71
2021/04/14 10:34:28;;;;;;;3.33;1.50;;;;;;;;;;4994687;28;20369;-71
2021/04/14 10:36:55;;;;;;;6.70;1.90;;;;;;;;;;4994790;28;20022;-71
2021/04/14 10:39:32;;;;;;;5.97;1.65;;;;;;;;;;4994376;28;20034;-72
2021/04/14 10:41:59;;;;;;;4.03;1.50;;;;;;;;;;4994218;28;20033;-73
2021/04/14 10:44:28;;;;;;;3.78;1.50;;;;;;;;;;4976929;28;20022;-71
2021/04/14 10:47:05;;;;;;;5.35;1.42;;;;;;;;;;4994540;28;20033;-73
2021/04/14 10:49:32;;;;;;;4.07;1.45;;;;;;;;;;4994772;28;20102;-78
2021/04/14 10:52:02;;;;;;;4.95;1.70;;;;;;;;;;4976467;28;20129;-75
2021/04/14 10:54:29;;;;;;;5.38;1.50;;;;;;;;;;4976585;28;20026;-76
2021/04/14 10:57:08;;;;;;;6.93;1.55;;;;;;;;;;4994060;28;20022;-74
2021/04/14 10:59:35;;;;;;;4.57;1.80;;;;;;;;;;4993891;28;20786;-75
2021/04/14 11:02:01;;;;;;;6.13;1.30;;;;;;;;;;4994016;28;20046;-73
2021/04/14 11:04:30;;;;;;;4.60;1.55;;;;;;;;;;4993811;28;20065;-72
2021/04/14 11:07:07;;;;;;;4.03;1.50;;;;;;;;;;4993887;28;20033;-77
2021/04/14 11:09:34;;;;;;;3.78;1.55;;;;;;;;;;4994299;28;20041;-78
2021/04/14 11:12:01;;;;;;;3.95;1.67;;;;;;;;;;4976477;28;20081;-78
2021/04/14 11:14:27;;;;;;;4.28;1.55;;;;;;;;;;4993896;28;20401;-77
2021/04/14 11:16:54;;;;;;;3.75;1.42;;;;;;;;;;4993861;28;20097;-76
2021/04/14 11:19:21;;;;;;;6.05;1.50;;;;;;;;;;4976213;28;20031;-78
2021/04/14 11:21:59;;;;;;;4.68;1.50;;;;;;;;;;4993697;28;20050;-77
2021/04/14 11:24:25;;;;;;;3.80;1.35;;;;;;;;;;4976434;28;20028;-81
2021/04/14 11:26:56;;;;;;;4.88;1.50;;;;;;;;;;4974332;28;20034;-79
2021/04/14 11:29:29;;;;;;;4.32;1.23;;;;;;;;;;4974182;28;20431;-76
2021/04/14 11:31:58;;;;;;;3.50;1.40;;;;;;;;;;4972930;28;20093;-79
2021/04/14 11:34:29;;;;;;;2.97;1.20;;;;;;;;;;4992521;28;20022;-78
2021/04/14 11:36:57;;;;;;;3.63;1.35;;;;;;;;;;4992311;28;20061;-78
2021/04/14 11:39:23;;;;;;;4.55;1.50;;;;;;;;;;4993266;28;20030;-78
2021/04/14 11:42:04;;;;;;;2.92;1.23;;;;;;;;;;4976309;28;20044;-82
2021/04/14 11:44:41;;;;;;;3.47;1.27;;;;;;;;;;4977425;28;20061;-77
2021/04/14 11:47:09;;;;;;;3.90;1.38;;;;;;;;;;4993091;28;20034;-72
2021/04/14 11:49:36;;;;;;;3.25;1.30;;;;;;;;;;4993051;28;20022;-72
2021/04/14 11:52:35;;;;;;;9.93;1.65;;;;;;;;;;4993018;28;20177;-74
2021/04/14 11:55:11;;;;;;;4.10;1.42;;;;;;;;;;4944256;28;20073;-77
2021/04/14 11:57:44;;;;;;;10.20;1.30;;;;;;;;;;4993298;28;20121;-75
2021/04/14 12:00:26;;;;;;;7.30;1.85;;;;;;;;;;4993092;28;20450;-75
2021/04/14 12:02:55;;;;;;;5.55;1.30;;;;;;;;;;4975361;28;20551;-76
2021/04/14 12:05:21;;;;;;;6.60;1.40;;;;;;;;;;4992730;28;20030;-76
2021/04/14 12:07:47;;;;;;;8.23;1.10;;;;;;;;;;4974991;28;20106;-74
2021/04/14 12:10:14;;;;;;;9.07;1.60;;;;;;;;;;4992769;28;20026;-76
2021/04/14 12:12:40;;;;;;;7.70;1.70;;;;;;;;;;4992941;28;20022;-76
2021/04/14 12:15:07;;;;;;;6.20;1.00;;;;;;;;;;4992798;28;20029;-76
2021/04/14 12:17:33;;;;;;;7.00;1.63;;;;;;;;;;4975190;28;20089;-77
2021/04/14 12:19:59;;;;;;;8.15;1.85;;;;;;;;;;4975137;28;20117;-74
2021/04/14 12:22:25;;;;;;;8.60;1.63;;;;;;;;;;4992406;28;20053;-76
2021/04/14 12:24:52;;;;;;;5.22;1.17;;;;;;;;;;4974944;28;20037;-76
2021/04/14 12:27:18;;;;;;;7.15;1.42;;;;;;;;;;4992431;28;20076;-76
2021/04/14 12:29:44;;;;;;;5.10;1.40;;;;;;;;;;4992474;28;20027;-76
2021/04/14 12:32:10;;;;;;;4.47;1.30;;;;;;;;;;4974871;28;20018;-75
2021/04/14 12:34:36;;;;;;;6.55;1.80;;;;;;;;;;4992210;28;20074;-78
2021/04/14 12:37:02;;;;;;;4.72;1.20;;;;;;;;;;4975079;28;20479;-74
2021/04/14 12:39:28;;;;;;;4.15;1.50;;;;;;;;;;4992266;28;20038;-77
2021/04/14 12:41:54;;;;;;;3.33;1.30;;;;;;;;;;4992378;28;20022;-80
2021/04/14 12:44:22;;;;;;;5.50;1.17;;;;;;;;;;4991534;28;20070;-80
2021/04/14 12:46:50;;;;;;;3.40;1.50;;;;;;;;;;4973786;28;20022;-80
2021/04/14 12:49:17;;;;;;;5.65;1.77;;;;;;;;;;4992116;28;20014;-78
2021/04/14 12:51:45;;;;;;;5.30;1.25;;;;;;;;;;4992147;28;20506;-74
2021/04/14 12:54:20;;;;;;;2.60;1.13;;;;;;;;;;4991625;28;20558;-75
2021/04/14 12:57:00;;;;;;;4.35;1.10;;;;;;;;;;4974544;28;20027;-76
2021/04/14 12:59:32;;;;;;;3.95;1.25;;;;;;;;;;4991791;28;20034;-78
2021/04/14 13:02:04;;;;;;;4.55;1.27;;;;;;;;;;4992475;28;20027;-79
2021/04/14 13:04:42;;;;;;;3.38;1.33;;;;;;;;;;4992178;28;20026;-78
2021/04/14 13:07:11;;;;;;;3.35;1.30;;;;;;;;;;4992175;28;20118;-76
2021/04/14 13:09:38;;;;;;;5.78;1.48;;;;;;;;;;4992199;28;20027;-79
2021/04/14 13:12:07;;;;;;;2.70;1.23;;;;;;;;;;4974695;28;20029;-75
2021/04/14 13:14:33;;;;;;;2.25;1.00;;;;;;;;;;4974411;28;20431;-81
2021/04/14 13:17:09;;;;;;;3.00;1.08;;;;;;;;;;4991896;28;20038;-81
2021/04/14 13:19:35;;;;;;;3.55;1.50;;;;;;;;;;4974161;28;20038;-77
2021/04/14 13:22:07;;;;;;;3.13;1.10;;;;;;;;;;4974186;28;20046;-75
2021/04/14 13:24:36;;;;;;;4.63;1.33;;;;;;;;;;4974357;28;20176;-76
2021/04/14 13:27:05;;;;;;;4.90;1.30;;;;;;;;;;4974217;28;20022;-76
2021/04/14 13:29:33;;;;;;;2.85;1.23;;;;;;;;;;4992067;28;20030;-76
2021/04/14 13:32:03;;;;;;;3.25;1.10;;;;;;;;;;4974196;28;20025;-76
2021/04/14 13:34:48;;;;;;;3.60;1.27;;;;;;;;;;4992082;28;20081;-79
2021/04/14 13:37:14;;;;;;;2.88;1.20;;;;;;;;;;4991612;28;20033;-82
2021/04/14 13:39:47;;;;;;;3.05;1.10;;;;;;;;;;4991563;28;20097;-83
2021/04/14 13:42:23;;;;;;;3.97;1.23;;;;;;;;;;5000156;28;20028;-84
2021/04/14 13:44:53;;;;;;;2.80;1.40;;;;;;;;;;5011716;28;20137;-75
2021/04/14 13:47:21;;;;;;;3.85;1.50;;;;;;;;;;4993443;28;20117;-79
2021/04/14 13:49:52;;;;;;;2.85;1.27;;;;;;;;;;4991677;28;20169;-74
2021/04/14 13:52:21;;;;;;;2.90;1.40;;;;;;;;;;4991368;28;20146;-75
2021/04/14 13:54:47;;;;;;;3.05;1.10;;;;;;;;;;4991277;28;20025;-75
2021/04/14 13:57:16;;;;;;;5.00;1.30;;;;;;;;;;4973873;28;20050;-79
2021/04/14 13:59:54;;;;;;;12.95;1.42;;;;;;;;;;4990165;28;20048;-77
2021/04/14 14:02:27;;;;;;;2.70;1.17;;;;;;;;;;4993111;28;20027;-72
2021/04/14 14:04:54;;;;;;;2.75;1.27;;;;;;;;;;4978955;28;20025;-74
2021/04/14 14:07:24;;;;;;;13.50;1.38;;;;;;;;;;4995181;28;20080;-75
2021/04/14 14:09:59;;;;;;;2.22;1.10;;;;;;;;;;5000396;28;20044;-71
2021/04/14 14:12:27;;;;;;;2.65;1.00;;;;;;;;;;4997167;28;20029;-72
2021/04/14 14:14:55;;;;;;;2.63;1.27;;;;;;;;;;5014741;28;20057;-72
2021/04/14 14:17:24;;;;;;;4.05;1.17;;;;;;;;;;5009127;28;20022;-74
2021/04/14 14:19:50;;;;;;;2.90;1.10;;;;;;;;;;4983291;28;20066;-75
2021/04/14 14:22:19;;;;;;;4.57;1.20;;;;;;;;;;4974282;28;20050;-73
2021/04/14 14:24:46;;;;;;;4.80;1.30;;;;;;;;;;4975564;28;20034;-74
2021/04/14 14:27:12;;;;;;;2.67;1.20;;;;;;;;;;4984021;28;20030;-74
2021/04/14 14:29:39;;;;;;;2.28;1.13;;;;;;;;;;4993682;28;20025;-74
2021/04/14 14:32:07;;;;;;;4.13;1.10;;;;;;;;;;4986774;28;20019;-75
2021/04/14 14:34:35;;;;;;;4.25;1.30;;;;;;;;;;4974077;28;20049;-74
2021/04/14 14:37:10;;;;;;;6.45;1.33;;;;;;;;;;4975403;28;20118;-70
2021/04/14 14:39:42;;;;;;;2.08;1.00;;;;;;;;;;4975345;28;20488;-70
2021/04/14 14:42:14;;;;;;;4.75;1.30;;;;;;;;;;4973972;28;20019;-71
2021/04/14 14:44:59;;;;;;;2.17;1.17;;;;;;;;;;4974963;28;20026;-71
2021/04/14 14:47:25;;;;;;;2.70;1.20;;;;;;;;;;4954929;29;20065;-76
2021/04/14 14:49:57;;;;;;;2.72;1.17;;;;;;;;;;4956074;29;20568;-70
2021/04/14 14:52:23;;;;;;;4.32;1.25;;;;;;;;;;4955756;29;20365;-73
2021/04/14 14:54:51;;;;;;;2.25;1.00;;;;;;;;;;4955600;28;20042;-76
2021/04/14 14:57:21;;;;;;;3.58;1.42;;;;;;;;;;4955222;29;20044;-71